createdAt,value
2023-04-26T00:01:38.407Z,3.45
2023-04-26T00:04:42.106Z,2.80
2023-04-26T00:07:45.824Z,3.05
2023-04-26T00:10:48.499Z,2.85
2023-04-26T00:13:50.762Z,3.20
2023-04-26T00:16:53.662Z,3.03
2023-04-26T00:19:56.425Z,4.03
2023-04-26T00:22:59.142Z,3.75
2023-04-26T00:26:01.437Z,3.08
2023-04-26T00:29:03.723Z,2.97
2023-04-26T00:32:06.918Z,3.13
2023-04-26T00:35:10.339Z,2.72
2023-04-26T00:38:13.060Z,3.40
2023-04-26T00:41:15.809Z,3.05
2023-04-26T00:44:18.445Z,2.63
2023-04-26T00:47:21.598Z,2.20
2023-04-26T00:50:25.104Z,2.20
2023-04-26T00:53:28.860Z,2.88
2023-04-26T00:56:31.821Z,3.53
2023-04-26T00:59:35.163Z,2.85
2023-04-26T01:02:38.202Z,2.47
2023-04-26T01:05:42.422Z,2.22
2023-04-26T01:08:45.641Z,2.30
2023-04-26T01:11:48.236Z,3.15
2023-04-26T01:14:50.836Z,2.90
2023-04-26T01:17:53.257Z,3.47
2023-04-26T01:20:55.505Z,2.45
2023-04-26T01:23:57.720Z,3.00
2023-04-26T01:27:00.181Z,2.83
2023-04-26T01:30:02.552Z,1.80
2023-04-26T01:33:06.716Z,2.42
2023-04-26T01:36:10.114Z,2.42
2023-04-26T01:39:12.818Z,1.85
2023-04-26T01:42:16.599Z,1.33
2023-04-26T01:45:19.549Z,1.70
2023-04-26T01:48:40.035Z,2.85
2023-04-26T01:51:42.679Z,2.95
2023-04-26T01:54:46.449Z,2.58
2023-04-26T01:57:49.481Z,2.00
2023-04-26T02:00:51.930Z,2.45
2023-04-26T02:03:55.296Z,1.90
2023-04-26T02:06:57.924Z,2.78
2023-04-26T02:10:00.208Z,2.75
2023-04-26T02:13:02.479Z,1.60
2023-04-26T02:16:05.336Z,2.15
2023-04-26T02:19:07.793Z,3.13
2023-04-26T02:22:10.747Z,2.28
2023-04-26T02:25:16.176Z,2.40
2023-04-26T02:28:18.924Z,1.88
2023-04-26T02:31:23.093Z,2.45
2023-04-26T02:34:25.642Z,3.92
2023-04-26T02:37:28.054Z,2.28
2023-04-26T02:40:31.575Z,2.60
2023-04-26T02:43:35.005Z,3.88
2023-04-26T02:46:37.349Z,2.10
2023-04-26T02:49:40.529Z,2.45
2023-04-26T02:52:42.888Z,2.25
2023-04-26T02:55:45.183Z,1.85
2023-04-26T02:58:47.500Z,1.83
2023-04-26T03:01:50.574Z,2.67
2023-04-26T03:04:53.534Z,3.92
2023-04-26T03:07:57.091Z,2.30
2023-04-26T03:10:59.609Z,2.33
2023-04-26T03:14:02.776Z,2.25
2023-04-26T03:17:05.910Z,2.42
2023-04-26T03:20:09.136Z,2.67
2023-04-26T03:23:11.966Z,3.60
2023-04-26T03:26:14.604Z,2.63
2023-04-26T03:29:18.185Z,2.28
2023-04-26T03:32:20.639Z,3.03
2023-04-26T03:35:23.385Z,3.05
2023-04-26T03:38:25.821Z,2.08
2023-04-26T03:41:28.192Z,2.45
2023-04-26T03:44:35.026Z,2.55
2023-04-26T03:47:38.031Z,3.35
2023-04-26T03:50:41.240Z,5.57
2023-04-26T03:53:44.553Z,9.30
2023-04-26T03:56:48.341Z,21.65
2023-04-26T03:59:51.182Z,26.05
2023-04-26T04:02:54.274Z,26.83
2023-04-26T04:06:00.188Z,22.40
2023-04-26T04:09:02.838Z,20.95
2023-04-26T04:12:05.686Z,15.35
2023-04-26T04:15:08.116Z,18.33
2023-04-26T04:18:12.873Z,18.95
2023-04-26T04:21:17.021Z,13.98
2023-04-26T04:24:19.893Z,16.02
2023-04-26T04:27:22.401Z,13.27
2023-04-26T04:30:25.020Z,14.30
2023-04-26T04:33:27.854Z,10.57
2023-04-26T04:36:32.592Z,10.40
2023-04-26T04:39:35.408Z,11.13
2023-04-26T04:42:38.459Z,8.45
2023-04-26T04:45:42.572Z,7.43
2023-04-26T04:48:45.648Z,8.98
2023-04-26T04:51:48.312Z,11.43
2023-04-26T04:54:51.846Z,8.82
2023-04-26T04:57:54.248Z,8.50
2023-04-26T05:00:56.640Z,10.18
2023-04-26T05:04:02.876Z,7.90
2023-04-26T05:07:05.919Z,7.45
2023-04-26T05:10:10.341Z,6.05
2023-04-26T05:13:12.743Z,7.22
2023-04-26T05:16:15.483Z,6.45
2023-04-26T05:19:18.211Z,5.15
2023-04-26T05:22:21.322Z,6.72
2023-04-26T05:25:25.360Z,6.40
2023-04-26T05:28:37.665Z,5.32
2023-04-26T05:32:03.017Z,6.40
2023-04-26T05:35:32.004Z,5.43
2023-04-26T05:38:35.064Z,4.30
2023-04-26T05:41:38.077Z,4.88
2023-04-26T05:44:40.941Z,4.50
2023-04-26T05:47:43.948Z,5.20
2023-04-26T05:50:47.350Z,5.38
2023-04-26T05:53:51.177Z,3.97
2023-04-26T05:56:55.206Z,4.05
2023-04-26T06:00:00.355Z,4.75
2023-04-26T06:03:04.988Z,4.10
2023-04-26T06:06:07.825Z,3.65
2023-04-26T06:09:12.694Z,5.05
2023-04-26T06:12:15.278Z,7.05
2023-04-26T06:15:20.253Z,13.32
2023-04-26T06:18:22.883Z,14.48
2023-04-26T06:21:24.944Z,14.23
2023-04-26T06:24:27.309Z,18.00
2023-04-26T06:27:29.602Z,19.85
2023-04-26T06:30:32.249Z,20.17
2023-04-26T06:33:36.118Z,19.63
2023-04-26T06:36:39.604Z,19.67
2023-04-26T06:39:43.296Z,23.38
2023-04-26T06:42:47.607Z,19.45
2023-04-26T06:46:00.238Z,22.77
2023-04-26T06:49:02.804Z,14.25
2023-04-26T06:52:05.154Z,12.82
2023-04-26T06:55:07.909Z,15.85
2023-04-26T06:58:10.558Z,13.32
2023-04-26T07:01:13.612Z,12.57
2023-04-26T07:04:16.525Z,11.73
2023-04-26T07:07:19.984Z,13.90
2023-04-26T07:10:22.962Z,15.40
2023-04-26T07:13:25.812Z,12.23
2023-04-26T07:16:28.921Z,11.52
2023-04-26T07:19:31.718Z,12.43
2023-04-26T07:22:34.620Z,11.93
2023-04-26T07:25:37.507Z,9.50
2023-04-26T07:28:40.120Z,9.57
2023-04-26T07:31:42.960Z,10.23
2023-04-26T07:34:46.027Z,9.70
2023-04-26T07:37:49.001Z,8.35
2023-04-26T07:40:51.393Z,9.65
2023-04-26T07:43:54.810Z,7.20
2023-04-26T07:46:58.567Z,9.23
2023-04-26T07:50:01.589Z,9.68
2023-04-26T07:53:04.739Z,6.38
2023-04-26T07:56:07.771Z,6.72
2023-04-26T07:59:10.746Z,6.13
2023-04-26T08:02:14.328Z,5.32
2023-04-26T08:05:17.198Z,5.03
2023-04-26T08:08:20.275Z,6.75
2023-04-26T08:11:23.501Z,5.38
2023-04-26T08:14:26.012Z,5.38
2023-04-26T08:17:28.698Z,5.90
2023-04-26T08:20:30.975Z,7.43
2023-04-26T08:23:33.268Z,6.35
2023-04-26T08:26:36.304Z,6.00
2023-04-26T08:29:39.253Z,5.07
2023-04-26T08:32:42.268Z,5.53
2023-04-26T08:35:45.314Z,5.25
2023-04-26T08:38:49.234Z,5.40
2023-04-26T08:41:52.950Z,4.45
2023-04-26T08:44:55.810Z,4.20
2023-04-26T08:47:59.126Z,4.22
2023-04-26T08:51:01.454Z,4.10
2023-04-26T08:54:05.019Z,4.50
2023-04-26T08:57:08.209Z,4.13
2023-04-26T09:00:11.256Z,3.83
2023-04-26T09:03:15.324Z,3.08
2023-04-26T09:06:18.935Z,3.00
2023-04-26T09:09:21.606Z,2.45
2023-04-26T09:12:23.840Z,2.92
2023-04-26T09:15:26.381Z,2.67
2023-04-26T09:18:29.146Z,3.17
2023-04-26T09:21:31.962Z,2.00
2023-04-26T09:24:34.193Z,2.30
2023-04-26T09:27:37.021Z,2.58
2023-04-26T09:30:40.251Z,2.17
2023-04-26T09:33:43.258Z,2.08
2023-04-26T09:36:46.042Z,2.03
2023-04-26T09:39:49.943Z,2.38
2023-04-26T09:42:52.982Z,1.42
2023-04-26T09:45:55.696Z,2.45
2023-04-26T09:48:57.957Z,1.17
2023-04-26T09:52:00.934Z,2.10
2023-04-26T09:55:03.351Z,2.30
2023-04-26T09:58:07.158Z,2.22
2023-04-26T10:01:10.784Z,1.50
2023-04-26T10:04:13.934Z,1.98
2023-04-26T10:07:16.999Z,1.80
2023-04-26T10:10:19.451Z,2.65
2023-04-26T10:13:22.193Z,2.28
2023-04-26T10:16:24.986Z,1.27
2023-04-26T10:19:27.966Z,1.83
2023-04-26T10:22:30.189Z,2.45
2023-04-26T10:25:33.026Z,2.40
2023-04-26T10:28:36.157Z,1.60
2023-04-26T10:31:38.798Z,1.55
2023-04-26T10:34:41.671Z,1.38
2023-04-26T10:37:44.436Z,1.88
2023-04-26T10:40:47.150Z,0.80
2023-04-26T10:43:49.895Z,1.50
2023-04-26T10:46:52.678Z,1.52
2023-04-26T10:49:54.924Z,2.20
2023-04-26T10:52:57.880Z,1.27
2023-04-26T10:56:01.128Z,1.20
2023-04-26T10:59:08.459Z,1.50
2023-04-26T11:02:21.078Z,0.90
2023-04-26T11:05:25.434Z,1.33
2023-04-26T11:08:27.520Z,0.75
2023-04-26T11:11:30.296Z,2.03
2023-04-26T11:14:33.402Z,1.15
2023-04-26T11:17:36.461Z,0.90
2023-04-26T11:20:40.158Z,1.33
2023-04-26T11:23:43.377Z,12.63
2023-04-26T11:26:46.084Z,12.77
2023-04-26T11:29:48.879Z,12.15
2023-04-26T11:32:51.620Z,9.80
2023-04-26T11:35:54.458Z,18.85
2023-04-26T11:38:57.600Z,11.32
2023-04-26T11:42:01.150Z,14.48
2023-04-26T11:45:03.659Z,12.55
2023-04-26T11:48:06.956Z,11.13
2023-04-26T11:51:10.300Z,10.93
2023-04-26T11:54:13.273Z,5.85
2023-04-26T11:57:17.160Z,7.57
2023-04-26T12:00:20.633Z,8.18
2023-04-26T12:03:23.997Z,7.05
2023-04-26T12:06:27.200Z,7.15
2023-04-26T12:09:30.974Z,7.00
2023-04-26T12:12:34.522Z,7.88
2023-04-26T12:15:38.271Z,5.85
2023-04-26T12:18:41.097Z,6.70
2023-04-26T12:21:43.837Z,7.45
2023-04-26T12:24:47.425Z,6.20
2023-04-26T12:27:50.224Z,6.15
2023-04-26T12:30:52.750Z,4.05
2023-04-26T12:33:55.342Z,5.05
2023-04-26T12:36:58.374Z,5.22
2023-04-26T12:40:01.103Z,3.70
2023-04-26T12:43:04.108Z,5.65
2023-04-26T12:46:07.170Z,3.53
2023-04-26T12:49:10.220Z,4.28
2023-04-26T12:52:12.900Z,3.92
2023-04-26T12:55:15.207Z,4.05
2023-04-26T12:58:17.949Z,5.20
2023-04-26T13:01:20.557Z,4.03
2023-04-26T13:04:23.448Z,4.45
2023-04-26T13:07:27.100Z,2.55
2023-04-26T13:10:30.564Z,4.30
2023-04-26T13:13:42.906Z,4.32
2023-04-26T13:16:46.241Z,2.83
2023-04-26T13:19:48.877Z,3.28
2023-04-26T13:22:51.882Z,2.72
2023-04-26T13:25:54.160Z,1.90
2023-04-26T13:28:56.954Z,3.33
2023-04-26T13:31:59.658Z,2.25
2023-04-26T13:35:02.281Z,3.85
2023-04-26T13:38:05.596Z,3.28
2023-04-26T13:41:09.046Z,1.90
2023-04-26T13:44:12.088Z,2.80
2023-04-26T13:47:15.728Z,2.70
2023-04-26T13:50:18.857Z,1.70
2023-04-26T13:53:22.047Z,2.47
2023-04-26T13:56:26.267Z,2.50
2023-04-26T13:59:29.125Z,1.15
2023-04-26T14:02:32.483Z,1.40
2023-04-26T14:05:36.132Z,2.03
2023-04-26T14:08:39.582Z,2.35
2023-04-26T14:11:41.787Z,2.00
2023-04-26T14:14:44.564Z,1.38
2023-04-26T14:17:47.388Z,1.17
2023-04-26T14:20:49.976Z,1.52
2023-04-26T14:23:52.966Z,1.08
2023-04-26T14:26:55.720Z,2.05
2023-04-26T14:29:58.355Z,1.63
2023-04-26T14:33:00.626Z,1.10
2023-04-26T14:36:03.826Z,1.95
2023-04-26T14:39:08.251Z,1.52
2023-04-26T14:42:11.102Z,0.85
2023-04-26T14:45:14.005Z,1.20
2023-04-26T14:48:16.332Z,2.05
2023-04-26T14:51:19.693Z,1.98
2023-04-26T14:54:23.556Z,1.70
2023-04-26T14:57:27.011Z,3.80
2023-04-26T15:00:29.929Z,2.08
2023-04-26T15:03:32.668Z,2.90
2023-04-26T15:06:35.699Z,1.42
2023-04-26T15:09:39.210Z,2.63
2023-04-26T15:12:41.737Z,2.92
2023-04-26T15:15:44.515Z,2.08
2023-04-26T15:18:47.012Z,3.55
2023-04-26T15:21:50.072Z,1.30
2023-04-26T15:24:52.329Z,1.85
2023-04-26T15:27:55.199Z,1.88
2023-04-26T15:30:58.047Z,1.45
2023-04-26T15:34:00.825Z,2.58
2023-04-26T15:37:03.953Z,2.25
2023-04-26T15:40:07.174Z,1.63
2023-04-26T15:43:09.593Z,1.95
2023-04-26T15:46:12.120Z,2.15
2023-04-26T15:49:14.648Z,1.88
2023-04-26T15:52:18.245Z,3.88
2023-04-26T15:55:21.355Z,4.00
2023-04-26T15:58:25.194Z,1.98
2023-04-26T16:01:27.793Z,2.35
2023-04-26T16:04:30.798Z,1.98
2023-04-26T16:07:33.746Z,1.52
2023-04-26T16:10:38.220Z,2.15
2023-04-26T16:13:40.420Z,1.23
2023-04-26T16:16:42.754Z,2.70
2023-04-26T16:19:45.806Z,2.70
2023-04-26T16:22:48.362Z,1.55
2023-04-26T16:25:51.316Z,1.35
2023-04-26T16:28:55.416Z,2.25
2023-04-26T16:31:58.637Z,2.30
2023-04-26T16:35:01.029Z,1.55
2023-04-26T16:38:04.112Z,22.08
2023-04-26T16:41:07.626Z,27.55
2023-04-26T16:44:10.608Z,26.27
2023-04-26T16:47:13.902Z,17.38
2023-04-26T16:50:16.997Z,12.82
2023-04-26T16:53:20.171Z,20.02
2023-04-26T16:56:23.851Z,13.00
2023-04-26T16:59:27.480Z,12.05
2023-04-26T17:02:30.894Z,13.02
2023-04-26T17:05:33.920Z,14.63
2023-04-26T17:08:37.681Z,11.13
2023-04-26T17:11:40.566Z,10.57
2023-04-26T17:14:43.753Z,7.68
2023-04-26T17:17:47.005Z,8.10
2023-04-26T17:20:50.261Z,7.22
2023-04-26T17:23:53.352Z,5.40
2023-04-26T17:26:56.848Z,7.97
2023-04-26T17:29:59.923Z,6.82
2023-04-26T17:33:02.712Z,6.43
2023-04-26T17:36:05.238Z,7.38
2023-04-26T17:39:08.737Z,5.68
2023-04-26T17:42:11.651Z,5.13
2023-04-26T17:45:14.872Z,3.80
2023-04-26T17:48:17.437Z,4.57
2023-04-26T17:51:20.633Z,4.07
2023-04-26T17:54:23.384Z,3.22
2023-04-26T17:57:25.980Z,3.40
2023-04-26T18:00:28.771Z,5.28
2023-04-26T18:03:31.974Z,3.88
2023-04-26T18:06:35.245Z,3.38
2023-04-26T18:09:37.956Z,2.70
2023-04-26T18:12:41.050Z,3.40
2023-04-26T18:15:43.932Z,2.85
2023-04-26T18:18:46.743Z,5.35
2023-04-26T18:21:50.002Z,2.65
2023-04-26T18:24:52.639Z,2.65
2023-04-26T18:27:54.966Z,2.20
2023-04-26T18:30:57.721Z,1.80
2023-04-26T18:34:01.132Z,3.10
2023-04-26T18:37:04.855Z,1.77
2023-04-26T18:40:08.005Z,1.85
2023-04-26T18:43:11.571Z,2.25
2023-04-26T18:46:13.574Z,1.75
2023-04-26T18:49:16.043Z,2.67
2023-04-26T18:52:19.049Z,1.63
2023-04-26T18:55:22.331Z,2.67
2023-04-26T18:58:25.923Z,2.15
2023-04-26T19:01:28.748Z,1.98
2023-04-26T19:04:34.130Z,2.28
2023-04-26T19:07:37.961Z,1.98
2023-04-26T19:10:40.466Z,1.52
2023-04-26T19:13:43.926Z,2.05
2023-04-26T19:16:47.598Z,1.63
2023-04-26T19:19:50.987Z,2.45
2023-04-26T19:22:54.919Z,1.55
2023-04-26T19:25:58.421Z,1.48
2023-04-26T19:29:01.078Z,1.27
2023-04-26T19:32:03.606Z,1.60
2023-04-26T19:35:06.375Z,2.88
2023-04-26T19:38:09.269Z,2.38
2023-04-26T19:41:12.326Z,3.92
2023-04-26T19:44:15.313Z,2.00
2023-04-26T19:47:17.623Z,2.70
2023-04-26T19:50:20.536Z,3.00
2023-04-26T19:53:23.927Z,3.28
2023-04-26T19:56:27.213Z,2.95
2023-04-26T19:59:30.647Z,1.05
2023-04-26T20:02:34.431Z,3.33
2023-04-26T20:05:37.317Z,2.10
2023-04-26T20:08:39.642Z,2.95
2023-04-26T20:11:42.641Z,1.65
2023-04-26T20:14:46.586Z,1.92
2023-04-26T20:17:50.292Z,1.38
2023-04-26T20:20:54.472Z,1.30
2023-04-26T20:23:57.954Z,1.33
2023-04-26T20:27:00.267Z,2.05
2023-04-26T20:30:02.598Z,0.73
2023-04-26T20:33:05.365Z,2.00
2023-04-26T20:36:08.217Z,2.83
2023-04-26T20:39:11.107Z,1.70
2023-04-26T20:42:14.084Z,1.00
2023-04-26T20:45:17.194Z,1.60
2023-04-26T20:48:20.354Z,1.42
2023-04-26T20:51:23.494Z,1.88
2023-04-26T20:54:26.607Z,1.45
2023-04-26T20:57:29.425Z,1.15
2023-04-26T21:00:32.351Z,2.58
2023-04-26T21:03:36.234Z,1.90
2023-04-26T21:06:39.395Z,2.15
2023-04-26T21:09:42.113Z,1.77
2023-04-26T21:12:45.661Z,2.15
2023-04-26T21:15:48.692Z,1.80
2023-04-26T21:18:51.245Z,1.60
2023-04-26T21:21:54.091Z,1.90
2023-04-26T21:24:56.862Z,2.28
2023-04-26T21:28:00.048Z,1.60
2023-04-26T21:31:03.599Z,2.17
2023-04-26T21:34:06.809Z,1.58
2023-04-26T21:37:09.917Z,2.10
2023-04-26T21:40:11.959Z,1.77
2023-04-26T21:43:14.742Z,1.23
2023-04-26T21:46:17.855Z,1.83
2023-04-26T21:49:21.976Z,1.95
2023-04-26T21:52:24.333Z,1.77
2023-04-26T21:55:27.404Z,2.63
2023-04-26T21:58:30.379Z,1.90
2023-04-26T22:01:33.622Z,2.00
2023-04-26T22:04:37.303Z,1.70
2023-04-26T22:07:39.573Z,2.35
2023-04-26T22:10:42.240Z,2.50
2023-04-26T22:13:44.993Z,2.35
2023-04-26T22:16:48.295Z,1.40
2023-04-26T22:19:51.952Z,1.33
2023-04-26T22:22:55.161Z,1.15
2023-04-26T22:25:58.582Z,3.60
2023-04-26T22:29:01.204Z,1.13
2023-04-26T22:32:03.676Z,1.60
2023-04-26T22:35:06.950Z,1.40
2023-04-26T22:38:10.589Z,4.13
2023-04-26T22:41:13.338Z,1.67
2023-04-26T22:44:15.599Z,2.22
2023-04-26T22:47:18.443Z,3.05
2023-04-26T22:50:21.180Z,1.60
2023-04-26T22:53:24.989Z,5.25
2023-04-26T22:56:28.004Z,2.30
2023-04-26T22:59:30.622Z,2.50
2023-04-26T23:02:33.546Z,2.72
2023-04-26T23:05:36.793Z,3.05
2023-04-26T23:08:40.325Z,2.25
2023-04-26T23:11:43.149Z,1.45
2023-04-26T23:14:46.707Z,3.47
2023-04-26T23:17:49.312Z,3.17
2023-04-26T23:20:52.276Z,1.83
2023-04-26T23:23:54.981Z,1.98
2023-04-26T23:26:58.023Z,2.50
2023-04-26T23:30:00.986Z,1.60
2023-04-26T23:33:03.675Z,1.98
2023-04-26T23:36:06.808Z,1.45
2023-04-26T23:39:10.026Z,2.58
2023-04-26T23:42:12.402Z,2.13
2023-04-26T23:45:15.209Z,2.28
2023-04-26T23:48:17.830Z,1.83
2023-04-26T23:51:20.980Z,2.22
2023-04-26T23:54:23.929Z,2.42
2023-04-26T23:57:26.161Z,2.85
